Time;durP1;ratioP1;P1;durP2;ratioP2;P2;SDS_P1;SDS_P2;PMS_P1;PMS_P2;Temp;Humidity;BMP_temperature;BMP_pressure;BME280_temperature;BME280_humidity;BME280_pressure;Samples;Min_cycle;Max_cycle;Signal;HPM_P1;HPM_P2
2023/04/11 00:01:25;;;;;;;3.70;1.27;;;8.20;99.90;;;;;;5021344;28;20049;-72
2023/04/11 00:03:55;;;;;;;6.47;1.60;;;8.10;99.90;;;;;;5023939;28;20145;-72
2023/04/11 00:06:21;;;;;;;4.90;1.30;;;8.10;99.90;;;;;;5004941;28;20064;-72
2023/04/11 00:08:47;;;;;;;5.30;1.40;;;8.10;99.90;;;;;;5004153;28;20412;-72
2023/04/11 00:11:13;;;;;;;6.45;1.70;;;8.20;99.90;;;;;;5022077;28;20061;-72
2023/04/11 00:13:38;;;;;;;3.40;1.15;;;8.20;99.90;;;;;;5019380;28;20076;-71
2023/04/11 00:16:06;;;;;;;5.40;1.42;;;8.20;99.90;;;;;;5020586;28;20088;-75
2023/04/11 00:18:34;;;;;;;4.55;1.67;;;8.20;99.90;;;;;;4994576;28;20050;-72
2023/04/11 00:21:00;;;;;;;4.05;1.27;;;8.20;99.90;;;;;;5024297;28;20056;-72
2023/04/11 00:23:26;;;;;;;6.72;1.70;;;8.30;99.90;;;;;;5000717;28;20121;-71
2023/04/11 00:25:51;;;;;;;3.33;1.10;;;8.30;99.90;;;;;;4998403;28;20050;-72
2023/04/11 00:28:17;;;;;;;4.28;1.35;;;8.30;99.90;;;;;;5021462;28;20388;-72
2023/04/11 00:30:43;;;;;;;4.68;1.10;;;8.30;99.90;;;;;;5022317;28;20037;-72
2023/04/11 00:33:08;;;;;;;6.13;1.52;;;8.30;99.90;;;;;;5018697;28;20049;-71
2023/04/11 00:35:36;;;;;;;4.65;1.45;;;8.40;99.90;;;;;;5021970;28;20103;-72
2023/04/11 00:38:02;;;;;;;5.38;1.50;;;8.30;99.90;;;;;;5020680;28;20066;-71
2023/04/11 00:40:28;;;;;;;4.25;1.50;;;8.30;99.90;;;;;;5024395;28;20717;-71
2023/04/11 00:42:55;;;;;;;3.97;1.52;;;8.40;99.90;;;;;;5027908;28;20121;-71
2023/04/11 00:45:21;;;;;;;6.82;1.60;;;8.30;99.90;;;;;;5025237;28;20056;-72
2023/04/11 00:47:48;;;;;;;6.07;2.05;;;8.40;99.90;;;;;;5026453;28;20049;-71
2023/04/11 00:50:14;;;;;;;3.97;1.38;;;8.30;99.90;;;;;;5024786;28;20045;-71
2023/04/11 00:52:42;;;;;;;3.33;1.58;;;8.20;99.90;;;;;;5005347;28;20085;-72
2023/04/11 00:55:09;;;;;;;7.30;2.53;;;8.30;99.90;;;;;;5026334;28;20408;-71
2023/04/11 00:57:35;;;;;;;9.77;2.33;;;8.20;99.90;;;;;;5025321;28;20102;-71
2023/04/11 01:00:02;;;;;;;5.63;2.05;;;8.20;99.90;;;;;;5010001;28;20745;-71
2023/04/11 01:02:28;;;;;;;;;;;8.20;99.90;;;;;;5015154;28;20046;-72
2023/04/11 01:04:55;;;;;;;6.90;2.08;;;8.10;99.90;;;;;;5025003;28;20248;-71
2023/04/11 01:07:22;;;;;;;6.07;2.50;;;8.10;99.90;;;;;;5022918;28;20041;-71
2023/04/11 01:09:50;;;;;;;5.88;1.85;;;8.10;99.90;;;;;;5017625;28;20132;-72
2023/04/11 01:12:16;;;;;;;6.93;2.10;;;8.10;99.90;;;;;;5024884;28;20060;-72
2023/04/11 01:14:46;;;;;;;7.00;1.70;;;8.10;99.90;;;;;;5022995;28;20049;-71
2023/04/11 01:17:13;;;;;;;4.85;1.75;;;8.10;99.90;;;;;;5025712;28;20397;-71
2023/04/11 01:19:39;;;;;;;7.10;2.03;;;8.10;99.90;;;;;;5022991;28;20056;-71
2023/04/11 01:22:06;;;;;;;4.93;1.55;;;8.10;99.90;;;;;;5006922;28;20413;-71
2023/04/11 01:24:31;;;;;;;6.03;1.60;;;8.10;99.90;;;;;;5027907;28;20128;-72
2023/04/11 01:26:57;;;;;;;5.53;1.83;;;8.10;99.90;;;;;;5021935;28;20137;-71
2023/04/11 01:29:23;;;;;;;5.03;1.50;;;8.10;99.90;;;;;;5024011;28;20042;-72
2023/04/11 01:31:50;;;;;;;5.82;1.65;;;8.00;99.90;;;;;;5008344;28;20748;-72
2023/04/11 01:34:17;;;;;;;5.35;1.63;;;8.10;99.90;;;;;;5025457;28;20060;-71
2023/04/11 01:36:47;;;;;;;4.53;1.73;;;8.00;99.90;;;;;;5007407;28;20631;-72
2023/04/11 01:39:12;;;;;;;6.28;1.90;;;8.10;99.90;;;;;;5023068;28;20487;-72
2023/04/11 01:41:39;;;;;;;3.92;1.50;;;8.10;99.90;;;;;;5026060;28;20037;-72
2023/04/11 01:44:05;;;;;;;5.47;1.80;;;8.10;99.90;;;;;;5005129;28;20128;-72
2023/04/11 01:46:31;;;;;;;5.38;2.05;;;8.10;99.90;;;;;;5025443;28;20186;-72
2023/04/11 01:48:58;;;;;;;5.40;1.80;;;8.10;99.90;;;;;;5023466;28;20044;-72
2023/04/11 01:51:24;;;;;;;5.53;1.98;;;8.00;99.90;;;;;;5005578;28;20114;-71
2023/04/11 01:53:49;;;;;;;5.25;1.80;;;8.00;99.90;;;;;;5022414;28;20088;-71
2023/04/11 01:56:15;;;;;;;6.72;2.20;;;7.90;99.90;;;;;;5007003;28;20049;-71
2023/04/11 01:58:41;;;;;;;4.78;1.70;;;7.90;99.90;;;;;;5023847;28;20129;-71
2023/04/11 02:01:07;;;;;;;9.10;2.00;;;7.90;99.90;;;;;;5003111;28;20080;-71
2023/04/11 02:03:33;;;;;;;9.02;1.98;;;7.90;99.90;;;;;;5026838;28;20041;-71
2023/04/11 02:05:59;;;;;;;7.05;2.10;;;7.90;99.90;;;;;;5024329;28;20212;-71
2023/04/11 02:08:24;;;;;;;9.65;2.70;;;7.90;99.90;;;;;;5024929;28;20069;-71
2023/04/11 02:10:50;;;;;;;7.43;2.28;;;8.00;99.90;;;;;;5003973;28;20040;-71
2023/04/11 02:13:16;;;;;;;8.13;2.25;;;8.00;99.90;;;;;;5022301;28;20095;-71
2023/04/11 02:15:41;;;;;;;8.57;2.63;;;8.10;99.90;;;;;;5020363;28;21086;-71
2023/04/11 02:18:08;;;;;;;10.85;2.95;;;8.10;99.90;;;;;;5018402;28;20054;-71
2023/04/11 02:20:36;;;;;;;11.90;3.00;;;8.10;99.90;;;;;;5024282;28;20049;-72
2023/04/11 02:23:03;;;;;;;10.10;2.75;;;8.20;99.90;;;;;;5008724;28;20056;-72
2023/04/11 02:25:30;;;;;;;10.13;2.72;;;8.20;99.90;;;;;;5007662;28;20775;-71
2023/04/11 02:27:56;;;;;;;9.60;3.10;;;8.20;99.90;;;;;;5019223;28;20038;-71
2023/04/11 02:30:21;;;;;;;11.00;2.90;;;8.10;99.90;;;;;;5024043;28;20302;-72
2023/04/11 02:32:48;;;;;;;12.38;3.28;;;8.20;99.90;;;;;;5006102;28;20130;-72
2023/04/11 02:35:15;;;;;;;10.77;2.97;;;8.20;99.90;;;;;;5022917;28;20191;-72
2023/04/11 02:37:41;;;;;;;12.68;3.17;;;8.20;99.90;;;;;;5027097;28;20060;-71
2023/04/11 02:40:07;;;;;;;18.10;3.70;;;8.20;99.90;;;;;;5022670;28;20388;-72
2023/04/11 02:42:33;;;;;;;13.23;3.55;;;8.20;99.90;;;;;;5021576;28;20045;-71
2023/04/11 02:44:59;;;;;;;19.17;4.55;;;8.20;99.90;;;;;;5025238;28;20533;-72
2023/04/11 02:47:25;;;;;;;13.23;3.63;;;8.20;99.90;;;;;;5024001;28;20044;-72
2023/04/11 02:49:50;;;;;;;15.68;4.43;;;8.30;99.90;;;;;;5024401;28;20037;-71
2023/04/11 02:52:17;;;;;;;17.50;4.20;;;8.20;99.90;;;;;;5019012;28;20065;-71
2023/04/11 02:54:43;;;;;;;18.75;4.20;;;8.30;99.90;;;;;;5022382;28;20037;-72
2023/04/11 02:57:09;;;;;;;16.67;4.32;;;8.30;99.90;;;;;;5025697;28;20045;-71
2023/04/11 02:59:35;;;;;;;14.70;4.07;;;8.30;99.90;;;;;;5022472;28;20501;-72
2023/04/11 03:02:01;;;;;;;16.63;3.75;;;8.30;99.90;;;;;;5023624;28;20154;-74
2023/04/11 03:04:26;;;;;;;14.85;3.60;;;8.30;99.90;;;;;;5024574;28;20053;-72
2023/04/11 03:06:52;;;;;;;17.80;4.13;;;8.40;99.90;;;;;;5004588;28;20049;-72
2023/04/11 03:09:19;;;;;;;15.50;3.72;;;8.40;99.90;;;;;;5022383;28;20040;-71
2023/04/11 03:11:44;;;;;;;11.38;3.55;;;8.40;99.90;;;;;;5000065;28;20080;-71
2023/04/11 03:14:10;;;;;;;13.88;3.70;;;8.40;99.90;;;;;;5019649;28;20072;-71
2023/04/11 03:16:36;;;;;;;9.15;2.95;;;8.40;99.90;;;;;;5019600;28;20464;-71
2023/04/11 03:19:01;;;;;;;11.88;3.72;;;8.40;99.90;;;;;;5023801;28;20439;-71
2023/04/11 03:21:27;;;;;;;11.95;3.13;;;8.30;99.90;;;;;;5020000;28;20104;-71
2023/04/11 03:23:52;;;;;;;13.80;3.45;;;8.30;99.90;;;;;;5023746;28;20461;-71
2023/04/11 03:26:18;;;;;;;11.38;3.30;;;8.30;99.90;;;;;;5019820;28;20117;-71
2023/04/11 03:28:44;;;;;;;10.95;3.17;;;8.30;99.90;;;;;;5023459;28;20048;-71
2023/04/11 03:31:11;;;;;;;12.50;3.30;;;8.30;99.90;;;;;;5024258;28;20083;-71
2023/04/11 03:33:37;;;;;;;12.77;3.40;;;8.40;99.90;;;;;;5007110;28;20049;-71
2023/04/11 03:36:03;;;;;;;12.95;3.40;;;8.30;99.90;;;;;;5023889;28;20340;-71
2023/04/11 03:38:29;;;;;;;12.50;3.42;;;8.40;99.90;;;;;;5000970;28;20060;-71
2023/04/11 03:40:55;;;;;;;15.55;4.25;;;8.30;99.90;;;;;;5021256;28;20049;-71
2023/04/11 03:43:20;;;;;;;17.92;4.28;;;8.30;99.90;;;;;;4999359;28;20037;-71
2023/04/11 03:45:46;;;;;;;17.65;4.20;;;8.30;99.90;;;;;;5023022;28;20053;-71
2023/04/11 03:48:12;;;;;;;21.83;6.38;;;8.30;99.90;;;;;;5020017;28;20723;-71
2023/04/11 03:50:38;;;;;;;24.08;6.32;;;8.30;99.90;;;;;;5022349;28;20051;-71
2023/04/11 03:53:07;;;;;;;25.60;5.50;;;8.30;99.90;;;;;;5020660;28;20148;-71
2023/04/11 03:55:32;;;;;;;22.65;5.57;;;8.30;99.90;;;;;;5002359;28;20822;-71
2023/04/11 03:57:58;;;;;;;24.02;5.63;;;8.40;99.90;;;;;;5021850;28;20555;-71
2023/04/11 04:00:23;;;;;;;22.95;5.45;;;8.40;99.90;;;;;;5020839;28;20037;-71
2023/04/11 04:02:49;;;;;;;20.73;5.30;;;8.40;99.90;;;;;;5003898;28;20128;-71
2023/04/11 04:05:15;;;;;;;14.30;3.88;;;8.40;99.90;;;;;;5021034;28;20042;-71
2023/04/11 04:07:40;;;;;;;18.08;4.55;;;8.30;99.90;;;;;;5003588;28;20689;-71
2023/04/11 04:10:06;;;;;;;17.38;4.80;;;8.30;99.90;;;;;;5005787;28;20128;-71
2023/04/11 04:12:33;;;;;;;19.92;4.13;;;8.30;99.90;;;;;;5021717;28;20034;-71
2023/04/11 04:14:58;;;;;;;20.58;4.22;;;8.30;99.90;;;;;;5025791;28;20041;-72
2023/04/11 04:17:24;;;;;;;17.98;3.88;;;8.20;99.90;;;;;;5005738;28;20099;-71
2023/04/11 04:19:50;;;;;;;18.27;4.18;;;8.20;99.90;;;;;;5026423;28;20138;-71
2023/04/11 04:22:16;;;;;;;17.13;3.95;;;8.20;99.90;;;;;;5028310;28;20472;-71
2023/04/11 04:24:44;;;;;;;14.55;4.13;;;8.30;99.90;;;;;;5007248;28;20049;-71
2023/04/11 04:27:12;;;;;;;16.35;3.20;;;8.20;99.90;;;;;;5027472;28;20120;-71
2023/04/11 04:29:45;;;;;;;14.82;3.72;;;8.20;99.90;;;;;;5023444;28;20076;-71
2023/04/11 04:32:21;;;;;;;15.85;3.83;;;8.10;99.90;;;;;;5006793;28;20068;-71
2023/04/11 04:34:48;;;;;;;15.90;4.00;;;8.20;99.90;;;;;;5022733;28;20128;-71
2023/04/11 04:37:20;;;;;;;13.90;3.78;;;8.30;99.90;;;;;;5009172;28;20111;-71
2023/04/11 04:40:00;;;;;;;15.38;4.03;;;8.20;99.90;;;;;;5025371;28;20048;-71
2023/04/11 04:42:28;;;;;;;19.15;4.32;;;8.20;99.90;;;;;;5021965;28;20076;-71
2023/04/11 04:44:55;;;;;;;20.73;4.18;;;8.20;99.90;;;;;;5007102;28;20104;-71
2023/04/11 04:47:24;;;;;;;16.30;4.03;;;8.20;99.90;;;;;;5009082;28;20041;-71
2023/04/11 04:49:57;;;;;;;15.75;3.63;;;8.30;99.90;;;;;;5001859;28;20400;-71
2023/04/11 04:52:24;;;;;;;16.65;3.75;;;8.20;99.90;;;;;;5009033;28;20060;-71
2023/04/11 04:54:50;;;;;;;20.00;3.92;;;8.30;99.90;;;;;;5025437;28;20111;-71
2023/04/11 04:57:16;;;;;;;19.67;4.15;;;8.30;99.90;;;;;;5029010;28;20044;-71
2023/04/11 04:59:44;;;;;;;17.23;4.35;;;8.20;99.90;;;;;;5023960;28;20038;-71
2023/04/11 05:02:10;;;;;;;17.05;4.72;;;8.20;99.90;;;;;;5009590;28;20524;-71
2023/04/11 05:04:36;;;;;;;15.50;3.92;;;8.20;99.90;;;;;;5026058;28;20041;-71
2023/04/11 05:07:01;;;;;;;16.65;4.78;;;8.30;99.90;;;;;;5021674;28;20040;-71
2023/04/11 05:09:27;;;;;;;15.80;4.38;;;8.30;99.90;;;;;;5026525;28;20158;-71
2023/04/11 05:11:53;;;;;;;12.88;4.07;;;8.30;99.90;;;;;;5027148;28;20520;-72
2023/04/11 05:14:18;;;;;;;18.42;3.78;;;8.30;99.90;;;;;;5023625;28;20042;-71
2023/04/11 05:16:47;;;;;;;14.52;3.83;;;8.30;99.90;;;;;;5022086;28;20054;-71
2023/04/11 05:19:13;;;;;;;13.00;3.78;;;8.30;99.90;;;;;;5009798;28;20045;-71
2023/04/11 05:21:38;;;;;;;17.27;4.03;;;8.30;99.90;;;;;;5025079;28;20049;-71
2023/04/11 05:24:04;;;;;;;15.48;3.83;;;8.20;99.90;;;;;;5024713;28;20041;-71
2023/04/11 05:26:30;;;;;;;14.20;4.25;;;8.20;99.90;;;;;;5017188;28;20034;-71
2023/04/11 05:28:57;;;;;;;12.48;3.92;;;8.20;99.90;;;;;;5022052;28;20481;-71
2023/04/11 05:31:24;;;;;;;16.07;4.30;;;8.30;99.90;;;;;;5017972;28;20041;-71
2023/04/11 05:33:50;;;;;;;14.00;3.95;;;8.20;99.90;;;;;;5018676;28;20304;-71
2023/04/11 05:36:16;;;;;;;18.42;4.57;;;8.30;99.90;;;;;;5023312;28;20119;-71
2023/04/11 05:38:43;;;;;;;13.23;4.38;;;8.20;99.90;;;;;;5022680;28;20080;-71
2023/04/11 05:41:09;;;;;;;10.45;3.72;;;8.20;99.90;;;;;;5004862;28;20542;-71
2023/04/11 05:43:36;;;;;;;15.50;4.47;;;8.20;99.90;;;;;;5022421;28;20042;-71
2023/04/11 05:46:02;;;;;;;13.35;3.97;;;8.20;99.90;;;;;;5010701;28;20049;-71
2023/04/11 05:48:28;;;;;;;14.00;3.95;;;8.20;99.90;;;;;;5022420;28;20038;-71
2023/04/11 05:50:55;;;;;;;13.70;3.55;;;8.20;99.90;;;;;;5006462;28;20460;-71
2023/04/11 05:53:21;;;;;;;13.00;4.03;;;8.20;99.90;;;;;;5025310;28;20048;-71
2023/04/11 05:55:47;;;;;;;13.32;3.65;;;8.20;99.90;;;;;;5020651;28;20041;-71
2023/04/11 05:58:12;;;;;;;13.40;3.53;;;8.30;99.90;;;;;;5020545;28;20046;-70
2023/04/11 06:00:38;;;;;;;13.55;3.28;;;8.30;99.90;;;;;;5020255;28;20056;-71
2023/04/11 06:03:06;;;;;;;11.82;3.58;;;8.30;99.90;;;;;;5023823;28;20144;-71
2023/04/11 06:05:35;;;;;;;11.65;3.15;;;8.30;99.90;;;;;;5019324;28;20053;-71
2023/04/11 06:08:02;;;;;;;9.80;2.53;;;8.30;99.90;;;;;;5020840;28;20127;-71
2023/04/11 06:10:31;;;;;;;12.88;3.15;;;8.40;99.90;;;;;;5021954;28;20041;-72
2023/04/11 06:12:57;;;;;;;11.82;3.08;;;8.40;99.90;;;;;;5006368;28;20551;-71
2023/04/11 06:15:25;;;;;;;8.60;2.60;;;8.30;99.90;;;;;;5026556;28;20064;-71
2023/04/11 06:17:51;;;;;;;;;;;8.40;99.90;;;;;;4999210;28;20475;-71
2023/04/11 06:20:17;;;;;;;9.38;3.08;;;8.40;99.90;;;;;;5006515;28;20067;-71
2023/04/11 06:22:45;;;;;;;8.73;2.40;;;8.40;99.90;;;;;;5002840;28;20133;-71
2023/04/11 06:25:13;;;;;;;7.78;2.67;;;8.50;99.90;;;;;;4998095;28;20046;-70
2023/04/11 06:27:39;;;;;;;9.00;2.72;;;8.50;99.90;;;;;;4998072;28;20045;-70
2023/04/11 06:30:05;;;;;;;10.52;2.60;;;8.50;99.90;;;;;;5005684;28;20053;-71
2023/04/11 06:32:31;;;;;;;9.48;2.47;;;8.50;99.90;;;;;;5002573;28;20107;-71
2023/04/11 06:34:57;;;;;;;13.90;3.13;;;8.50;99.90;;;;;;5005049;28;20031;-71
2023/04/11 06:37:22;;;;;;;5.90;2.33;;;8.60;99.90;;;;;;5003846;28;20140;-71
2023/04/11 06:39:54;;;;;;;9.05;2.42;;;8.60;99.90;;;;;;4995472;28;20448;-71
2023/04/11 06:42:20;;;;;;;9.77;2.72;;;8.60;99.90;;;;;;5002973;28;20041;-71
2023/04/11 06:44:47;;;;;;;10.85;3.08;;;8.60;99.90;;;;;;5003311;28;20658;-71
2023/04/11 06:47:13;;;;;;;9.93;2.20;;;8.60;99.90;;;;;;5004312;28;20084;-71
2023/04/11 06:49:39;;;;;;;8.93;2.75;;;8.60;99.90;;;;;;4996474;28;20828;-71
2023/04/11 06:52:05;;;;;;;8.55;2.30;;;8.60;99.90;;;;;;5003755;28;20046;-71
2023/04/11 06:54:30;;;;;;;11.20;2.63;;;8.70;99.90;;;;;;5002192;28;20096;-70
2023/04/11 06:56:56;;;;;;;7.85;2.70;;;8.70;99.90;;;;;;5003149;28;20129;-71
2023/04/11 06:59:22;;;;;;;9.77;2.35;;;8.70;99.90;;;;;;5002150;28;20041;-71
2023/04/11 07:01:48;;;;;;;10.35;2.95;;;8.80;99.90;;;;;;5000668;28;20050;-71
2023/04/11 07:04:15;;;;;;;12.87;3.33;;;8.70;99.90;;;;;;5006816;28;20056;-71
2023/04/11 07:06:40;;;;;;;14.35;2.70;;;8.80;99.90;;;;;;5003967;28;20085;-72
2023/04/11 07:09:08;;;;;;;12.07;3.15;;;8.70;99.90;;;;;;5003637;28;20172;-71
2023/04/11 07:11:34;;;;;;;11.73;2.58;;;8.70;99.90;;;;;;5003692;28;20049;-74
2023/04/11 07:14:00;;;;;;;8.60;2.35;;;8.70;99.90;;;;;;5000183;28;20508;-73
2023/04/11 07:16:26;;;;;;;10.05;3.00;;;8.70;99.90;;;;;;4999364;28;20046;-73
2023/04/11 07:18:52;;;;;;;16.25;2.95;;;8.80;99.90;;;;;;5015518;28;20088;-78
2023/04/11 07:21:18;;;;;;;10.70;2.67;;;8.80;99.90;;;;;;5005104;28;20049;-71
2023/04/11 07:23:44;;;;;;;12.13;3.28;;;8.80;99.90;;;;;;5019678;28;20861;-74
2023/04/11 07:26:13;;;;;;;12.88;4.30;;;8.80;99.90;;;;;;5024206;28;20132;-73
2023/04/11 07:28:40;;;;;;;12.80;2.83;;;8.90;99.90;;;;;;5020931;28;20069;-73
2023/04/11 07:31:12;;;;;;;10.37;2.80;;;8.90;99.90;;;;;;5022898;28;20045;-72
2023/04/11 07:33:41;;;;;;;12.02;2.58;;;8.90;99.90;;;;;;5026571;28;20296;-73
2023/04/11 07:36:07;;;;;;;9.82;2.50;;;8.90;99.90;;;;;;5005950;28;20461;-74
2023/04/11 07:38:33;;;;;;;11.98;2.83;;;9.00;99.90;;;;;;5019950;28;20045;-75
2023/04/11 07:41:00;;;;;;;10.77;2.67;;;9.00;99.90;;;;;;5008009;28;20048;-74
2023/04/11 07:43:27;;;;;;;13.27;2.72;;;9.10;99.90;;;;;;5020363;28;20034;-74
2023/04/11 07:45:54;;;;;;;15.88;2.72;;;9.10;99.90;;;;;;5027728;28;20500;-74
2023/04/11 07:48:20;;;;;;;10.57;2.58;;;9.20;99.90;;;;;;5018713;28;20057;-74
2023/04/11 07:50:46;;;;;;;12.23;2.88;;;9.10;99.90;;;;;;5002887;28;20116;-74
2023/04/11 07:53:12;;;;;;;12.13;2.67;;;9.20;99.90;;;;;;5004726;28;20529;-74
2023/04/11 07:55:41;;;;;;;12.55;2.60;;;9.20;99.90;;;;;;5016674;28;20029;-74
2023/04/11 07:58:07;;;;;;;11.20;2.78;;;9.10;99.90;;;;;;5025050;28;20946;-74
2023/04/11 08:00:32;;;;;;;11.98;2.67;;;9.10;99.90;;;;;;5021659;28;20114;-74
2023/04/11 08:03:03;;;;;;;11.80;2.30;;;9.10;99.90;;;;;;5005553;28;20447;-73
2023/04/11 08:05:29;;;;;;;12.35;2.33;;;9.10;99.90;;;;;;5014286;28;20473;-72
2023/04/11 08:07:56;;;;;;;10.35;2.33;;;9.20;99.90;;;;;;5009300;28;20685;-72
2023/04/11 08:10:22;;;;;;;10.77;2.60;;;9.30;99.90;;;;;;5004371;28;20041;-74
2023/04/11 08:12:48;;;;;;;10.43;2.33;;;9.40;99.90;;;;;;4993788;28;20285;-73
2023/04/11 08:15:14;;;;;;;10.27;2.22;;;9.50;99.90;;;;;;5020824;28;20048;-77
2023/04/11 08:17:42;;;;;;;9.02;2.40;;;9.60;99.90;;;;;;5024281;28;20429;-72
2023/04/11 08:20:11;;;;;;;9.10;2.22;;;9.60;99.90;;;;;;5018840;28;20087;-75
2023/04/11 08:22:38;;;;;;;10.68;2.40;;;9.60;99.90;;;;;;5018356;28;20717;-72
2023/04/11 08:25:06;;;;;;;9.98;2.50;;;9.70;99.90;;;;;;5020454;28;20051;-72
2023/04/11 08:27:32;;;;;;;9.43;2.17;;;9.80;99.90;;;;;;5011942;28;20053;-72
2023/04/11 08:29:58;;;;;;;8.73;2.63;;;10.00;99.90;;;;;;5004596;28;20042;-72
2023/04/11 08:32:23;;;;;;;13.93;2.30;;;10.00;99.90;;;;;;5007997;28;20046;-72
2023/04/11 08:34:49;;;;;;;14.05;2.20;;;10.00;99.90;;;;;;5021359;28;20052;-72
2023/04/11 08:37:15;;;;;;;11.30;2.53;;;10.00;99.90;;;;;;5007305;28;20445;-72
2023/04/11 08:39:40;;;;;;;10.52;2.58;;;10.20;99.90;;;;;;5001192;28;20074;-72
2023/04/11 08:42:06;;;;;;;9.45;2.22;;;10.30;99.90;;;;;;5011188;28;20073;-72
2023/04/11 08:44:32;;;;;;;9.55;2.25;;;10.40;99.90;;;;;;5002552;28;20085;-72
2023/04/11 08:46:58;;;;;;;9.68;2.67;;;10.30;99.90;;;;;;5008435;28;20515;-72
2023/04/11 08:49:24;;;;;;;8.43;2.30;;;10.30;99.90;;;;;;5021488;28;20063;-72
2023/04/11 08:51:52;;;;;;;10.63;2.40;;;10.40;99.90;;;;;;5004366;28;20046;-74
2023/04/11 08:54:18;;;;;;;9.60;2.50;;;10.30;99.90;;;;;;5026563;28;20238;-72
2023/04/11 08:56:44;;;;;;;13.60;2.83;;;10.30;99.90;;;;;;5024474;28;20536;-73
2023/04/11 08:59:10;;;;;;;13.32;3.05;;;10.20;99.90;;;;;;4998860;28;20128;-72
2023/04/11 09:01:36;;;;;;;12.52;2.47;;;10.20;99.90;;;;;;5008060;28;20184;-74
2023/04/11 09:04:05;;;;;;;10.40;2.58;;;10.10;99.90;;;;;;5024771;28;20609;-74
2023/04/11 09:06:32;;;;;;;12.15;2.38;;;10.00;99.90;;;;;;5029569;28;20095;-71
2023/04/11 09:08:59;;;;;;;5.97;1.95;;;9.70;99.90;;;;;;5030394;28;20037;-71
2023/04/11 09:11:25;;;;;;;6.38;1.77;;;9.40;99.90;;;;;;5030072;28;20052;-69
2023/04/11 09:14:08;;;;;;;7.13;1.42;;;9.20;99.90;;;;;;5000828;28;20048;-71
2023/04/11 09:16:34;;;;;;;11.02;1.90;;;9.10;99.90;;;;;;5022799;28;20045;-71
2023/04/11 09:19:00;;;;;;;11.57;2.25;;;9.10;99.90;;;;;;5029579;28;20053;-71
2023/04/11 09:21:28;;;;;;;10.38;2.20;;;9.30;99.90;;;;;;5007848;28;20395;-76
2023/04/11 09:24:12;;;;;;;8.43;2.72;;;9.40;99.90;;;;;;5008398;28;20664;-76
2023/04/11 09:26:37;;;;;;;11.13;2.42;;;9.70;99.90;;;;;;5020847;28;20056;-76
2023/04/11 09:29:03;;;;;;;10.43;2.65;;;9.70;99.90;;;;;;5029420;28;20042;-76
2023/04/11 09:31:42;;;;;;;11.75;2.30;;;9.80;99.90;;;;;;5023614;28;20489;-76
2023/04/11 09:34:10;;;;;;;9.75;2.35;;;9.60;99.90;;;;;;5021659;28;20914;-73
2023/04/11 09:36:36;;;;;;;7.45;1.60;;;9.30;99.90;;;;;;5025802;28;20053;-74
2023/04/11 09:39:20;;;;;;;6.13;1.60;;;9.10;99.90;;;;;;5011132;28;20599;-75
2023/04/11 09:41:45;;;;;;;10.07;1.73;;;9.00;99.90;;;;;;5006936;28;20648;-72
2023/04/11 09:44:11;;;;;;;6.43;1.70;;;9.00;99.90;;;;;;5027488;28;20045;-72
2023/04/11 09:46:55;;;;;;;6.90;1.75;;;8.80;99.90;;;;;;5009488;28;20037;-72
2023/04/11 09:49:28;;;;;;;8.07;2.00;;;8.80;99.90;;;;;;5006324;28;20052;-72
2023/04/11 09:51:56;;;;;;;6.22;1.52;;;8.70;99.90;;;;;;5029284;28;20084;-72
2023/04/11 09:54:22;;;;;;;10.00;1.85;;;8.70;99.90;;;;;;5024144;28;20054;-72
2023/04/11 09:56:48;;;;;;;8.07;1.92;;;8.70;99.90;;;;;;5009568;28;20046;-73
2023/04/11 09:59:15;;;;;;;11.50;2.55;;;8.70;99.90;;;;;;5028758;28;20030;-73
2023/04/11 10:01:41;;;;;;;10.40;2.53;;;8.90;99.90;;;;;;5009619;28;20061;-73
2023/04/11 10:04:09;;;;;;;9.32;2.28;;;9.10;99.90;;;;;;5026643;28;20037;-73
2023/04/11 10:06:46;;;;;;;5.95;1.42;;;9.30;99.90;;;;;;5001766;28;20103;-77
2023/04/11 10:09:13;;;;;;;2.73;0.73;;;9.30;99.90;;;;;;5013352;28;20033;-77
2023/04/11 10:11:40;;;;;;;;;;;9.20;99.90;;;;;;5010967;28;20203;-74
2023/04/11 10:14:05;;;;;;;6.28;1.77;;;9.10;99.90;;;;;;5010359;28;19925;-75
2023/04/11 10:16:32;;;;;;;7.82;1.70;;;9.10;99.90;;;;;;5027928;28;20053;-75
2023/04/11 10:19:18;;;;;;;13.15;2.05;;;9.00;99.90;;;;;;5023954;28;20103;-75
2023/04/11 10:21:45;;;;;;;14.85;2.35;;;9.10;99.90;;;;;;5015827;28;20099;-72
2023/04/11 10:24:15;;;;;;;8.83;2.60;;;9.20;99.90;;;;;;5022525;28;20623;-72
2023/04/11 10:26:58;;;;;;;10.48;2.58;;;9.50;99.90;;;;;;5027941;28;20120;-72
2023/04/11 10:29:48;;;;;;;10.20;2.70;;;9.70;99.90;;;;;;5001295;28;20041;-76
2023/04/11 10:32:14;;;;;;;12.30;2.75;;;9.70;99.90;;;;;;5001082;28;20096;-72
2023/04/11 10:34:48;;;;;;;12.88;2.50;;;9.70;99.90;;;;;;5027032;28;20104;-74
2023/04/11 10:37:15;;;;;;;14.13;2.55;;;9.70;99.90;;;;;;5019401;28;20045;-75
2023/04/11 10:39:49;;;;;;;9.15;2.20;;;9.80;99.90;;;;;;5008884;28;20053;-71
2023/04/11 10:42:33;;;;;;;10.57;2.50;;;10.00;99.90;;;;;;5016930;28;20736;-73
2023/04/11 10:45:26;;;;;;;15.02;3.58;;;10.20;99.90;;;;;;5025479;28;20045;-73
2023/04/11 10:47:55;;;;;;;14.85;2.90;;;10.30;99.90;;;;;;5025914;28;20117;-74
2023/04/11 10:50:24;;;;;;;13.25;2.50;;;10.20;99.90;;;;;;5023832;28;20033;-74
2023/04/11 10:52:50;;;;;;;14.13;3.15;;;10.20;99.90;;;;;;5025612;28;20132;-76
2023/04/11 10:55:17;;;;;;;13.77;3.22;;;10.00;99.90;;;;;;5025663;28;20120;-77
2023/04/11 10:58:02;;;;;;;15.00;3.72;;;10.10;99.90;;;;;;5025468;28;20038;-70
2023/04/11 11:00:28;;;;;;;13.80;3.70;;;10.20;99.90;;;;;;5014695;28;20658;-72
2023/04/11 11:02:54;;;;;;;8.30;2.00;;;10.40;99.90;;;;;;5025846;28;20443;-71
2023/04/11 11:05:22;;;;;;;10.68;2.40;;;10.50;99.90;;;;;;5026027;28;20098;-71
2023/04/11 11:07:49;;;;;;;11.60;2.33;;;10.70;99.90;;;;;;5005352;28;20401;-74
2023/04/11 11:10:33;;;;;;;10.05;2.15;;;10.70;99.90;;;;;;5006644;28;20084;-74
2023/04/11 11:12:58;;;;;;;6.93;1.40;;;10.60;99.90;;;;;;5000801;28;20285;-73
2023/04/11 11:15:24;;;;;;;4.57;1.30;;;10.40;99.90;;;;;;5024179;28;20037;-79
2023/04/11 11:17:50;;;;;;;7.55;1.67;;;10.10;99.90;;;;;;5018810;28;20115;-77
2023/04/11 11:20:19;;;;;;;6.75;1.75;;;10.00;99.90;;;;;;5026029;28;20485;-79
2023/04/11 11:23:02;;;;;;;8.32;2.00;;;10.00;99.90;;;;;;5018157;28;20037;-76
2023/04/11 11:25:28;;;;;;;7.90;1.83;;;10.20;99.90;;;;;;5026164;28;20477;-74
2023/04/11 11:28:03;;;;;;;9.77;2.05;;;10.20;99.90;;;;;;5024616;28;20033;-75
2023/04/11 11:30:29;;;;;;;10.65;2.85;;;10.20;99.90;;;;;;5004804;28;20042;-72
2023/04/11 11:32:55;;;;;;;11.63;2.40;;;10.10;99.90;;;;;;5015677;28;20049;-76
2023/04/11 11:35:22;;;;;;;11.05;2.50;;;10.30;99.90;;;;;;5024820;28;20046;-74
2023/04/11 11:37:52;;;;;;;10.05;2.17;;;10.40;99.90;;;;;;5008197;28;20049;-73
2023/04/11 11:40:23;;;;;;;10.50;2.08;;;10.60;99.90;;;;;;5018386;28;20052;-73
2023/04/11 11:42:50;;;;;;;11.35;2.28;;;10.70;99.90;;;;;;5024740;28;20033;-74
2023/04/11 11:45:25;;;;;;;10.45;2.85;;;10.80;99.90;;;;;;5026152;28;20037;-74
2023/04/11 11:47:51;;;;;;;9.73;1.95;;;11.00;99.90;;;;;;5026396;28;20045;-73
2023/04/11 11:50:27;;;;;;;8.43;1.80;;;11.00;99.90;;;;;;5003567;28;20049;-73
2023/04/11 11:52:53;;;;;;;7.80;1.80;;;11.00;99.90;;;;;;5025181;28;20040;-73
2023/04/11 11:55:21;;;;;;;10.07;1.83;;;10.90;99.90;;;;;;5025634;28;20115;-74
2023/04/11 11:57:50;;;;;;;11.27;2.30;;;10.90;99.90;;;;;;4998757;28;20517;-73
2023/04/11 12:00:24;;;;;;;7.30;1.80;;;10.80;99.90;;;;;;5026975;28;20076;-73
2023/04/11 12:02:53;;;;;;;9.55;1.83;;;10.90;99.90;;;;;;5018057;28;20041;-74
2023/04/11 12:05:19;;;;;;;9.50;1.65;;;10.90;99.90;;;;;;5021891;28;20735;-73
2023/04/11 12:07:45;;;;;;;8.25;1.90;;;10.80;99.90;;;;;;5016673;28;20049;-74
2023/04/11 12:10:16;;;;;;;10.35;2.42;;;10.80;99.80;;;;;;5025656;28;20073;-74
2023/04/11 12:12:42;;;;;;;9.93;2.80;;;10.80;99.50;;;;;;5025818;28;20681;-74
2023/04/11 12:15:22;;;;;;;11.05;2.38;;;10.80;99.90;;;;;;5009050;28;20590;-74
2023/04/11 12:17:52;;;;;;;13.32;1.88;;;11.10;99.90;;;;;;5025051;28;20053;-75
2023/04/11 12:20:26;;;;;;;10.30;2.42;;;11.20;99.20;;;;;;5020059;28;20042;-75
2023/04/11 12:22:52;;;;;;;7.50;1.80;;;11.30;97.30;;;;;;5013945;28;20504;-77
2023/04/11 12:25:17;;;;;;;8.43;1.88;;;11.40;96.70;;;;;;5004437;28;20053;-80
2023/04/11 12:27:44;;;;;;;9.18;2.08;;;11.40;96.70;;;;;;4996066;28;20038;-74
2023/04/11 12:30:13;;;;;;;9.80;2.05;;;11.50;96.00;;;;;;5002241;28;20042;-74
2023/04/11 12:32:40;;;;;;;9.55;1.95;;;11.50;96.70;;;;;;5016945;28;20045;-73
2023/04/11 12:35:06;;;;;;;11.75;2.30;;;11.60;96.30;;;;;;5005636;28;20118;-75
2023/04/11 12:37:35;;;;;;;10.93;1.85;;;11.70;95.50;;;;;;5027998;28;20049;-73
2023/04/11 12:40:05;;;;;;;9.73;2.20;;;11.70;95.50;;;;;;5028883;28;20041;-74
2023/04/11 12:42:31;;;;;;;10.98;2.20;;;11.80;93.80;;;;;;5011470;28;20081;-72
2023/04/11 12:44:57;;;;;;;10.82;2.15;;;11.90;92.40;;;;;;5010589;28;20139;-72
2023/04/11 12:47:23;;;;;;;11.93;2.00;;;11.90;92.20;;;;;;5009647;28;20563;-71
2023/04/11 12:49:48;;;;;;;10.82;2.03;;;11.80;91.80;;;;;;5021875;28;20048;-74
2023/04/11 12:52:14;;;;;;;11.82;1.90;;;11.80;91.50;;;;;;5027437;28;20045;-76